Startpagina
METAR-TAF:

METAR-TAF

Vliegvelden :

Luchthaven El Salvador

El Salvador, El Salvador

breedte: 13-26N, lengte: 089-03W, hoogte: 25 m

Actueel weer

Dit bericht is 55 minuten geleden gemaakt, om 02:50 UTC
Wind 4 kt uit het noordnoordwesten, variërend tussen het noordwesten en het noordnoordoosten
Temperatuur 27°C
Vochtigheid 89%
Druk 1013 hPa
Zicht 10 km of meer
Gebroken wolken op 6500 ft

METAR: MSLP 210250Z 34004KT 310V030 9999 BKN065 27/25 Q1012 A2990 NOSIG

Tijdstip: 21:45 (03:45 UTC)

Verwachting

Dit bericht is 6 uur en het 20 minuten geleden gemaakt, om 21:25 UTC
Verwachting geldig van 21 om 00 UTC tot 21 om 24 UTC
Wind 10 kt uit het noordnoordoosten
Zicht 10 km of meer
Weinig wolken op 7000 ft
Tijdelijke
van 21 om 20 UTC tot 21 om 23 UTC
Wind 10 kt uit het zuiden
Zicht 10 km of meer
Weinig wolken op 4300 ft

TAF: MSLP 202125Z 2100/2124 02010KT 9999 FEW070 TX34/2118Z TN23/2112Z TEMPO 2120/2123 19010KT 9999 FEW043

Waarnemingen en weersverwachtingen van meer dan 4000 vliegvelden (METAR en TAF).

De beschikbare stations zijn de gele en rode punten op de kaart.

Ga met uw muis naar het station om de naam te zien.

Klik dan om waarnemingen en weersverwachtingen te zien.

kaart wijzigen: klik op de groene knoppen met een zwart kruis om in te zoomen, op de groene knop met een streepje om uit te zoomen of op de groene pijlen voor aangrenzende kaarten.


METAR-TAF: